Time;durP1;ratioP1;P1;durP2;ratioP2;P2;SDS_P1;SDS_P2;PMS_P1;PMS_P2;Temp;Humidity;BMP_temperature;BMP_pressure;BME280_temperature;BME280_humidity;BME280_pressure;Samples;Min_cycle;Max_cycle;Signal;HPM_P1;HPM_P2
2021/11/25 00:01:56;;;;;;;18.98;10.57;;;;;;;12.29;61.50;100594.56;4842101;29;20034;-96
2021/11/25 00:04:21;;;;;;;20.02;10.30;;;;;;;12.25;61.41;100595.75;4841733;29;20086;-95
2021/11/25 00:06:47;;;;;;;17.52;10.65;;;;;;;12.24;61.12;100602.81;4841847;29;20393;-96
2021/11/25 00:09:12;;;;;;;19.38;9.95;;;;;;;12.14;61.27;100590.41;4844249;29;20023;-96
2021/11/25 00:11:38;;;;;;;19.02;8.98;;;;;;;12.12;61.65;100589.66;4841978;29;20072;-95
2021/11/25 00:14:04;;;;;;;16.55;9.50;;;;;;;12.03;61.69;100589.38;4842038;29;20038;-95
2021/11/25 00:16:29;;;;;;;17.02;9.75;;;;;;;11.92;62.32;100591.09;4841860;29;20026;-96
2021/11/25 00:18:55;;;;;;;14.73;9.05;;;;;;;11.97;61.78;100595.09;4842245;29;20030;-95
2021/11/25 00:21:21;;;;;;;17.30;9.10;;;;;;;12.01;61.77;100600.97;4841816;29;20505;-96
2021/11/25 00:23:48;;;;;;;16.38;9.07;;;;;;;11.96;61.41;100601.28;4850613;29;20025;-95
2021/11/25 00:26:13;;;;;;;15.85;10.32;;;;;;;12.14;60.95;100599.13;4859220;29;20041;-95
2021/11/25 00:28:39;;;;;;;16.17;8.63;;;;;;;12.04;61.02;100598.94;4860768;29;20029;-96
2021/11/25 00:31:04;;;;;;;15.55;8.50;;;;;;;11.77;61.62;100591.19;4860464;29;20037;-95
2021/11/25 00:33:30;;;;;;;15.32;7.88;;;;;;;11.86;61.37;100577.38;4860575;29;20032;-95
2021/11/25 00:35:56;;;;;;;14.27;8.13;;;;;;;11.95;61.00;100575.06;4860142;29;20197;-96
2021/11/25 00:38:21;;;;;;;11.43;7.85;;;;;;;12.01;60.60;100579.91;4851636;29;20040;-96
2021/11/25 00:40:47;;;;;;;17.15;8.10;;;;;;;11.97;60.93;100579.28;4842754;29;20056;-95
2021/11/25 00:43:12;;;;;;;14.10;7.05;;;;;;;11.97;60.80;100573.19;4841769;29;20034;-95
2021/11/25 00:45:38;;;;;;;13.70;7.22;;;;;;;11.90;60.82;100578.88;4841874;29;20037;-95
2021/11/25 00:48:04;;;;;;;14.20;6.55;;;;;;;11.87;60.80;100581.69;4841872;29;20034;-96
2021/11/25 00:50:29;;;;;;;14.18;7.05;;;;;;;11.70;60.71;100574.16;4841735;29;20033;-96
2021/11/25 00:52:55;;;;;;;12.00;5.90;;;;;;;11.68;60.72;100578.69;4848268;29;20496;-96
2021/11/25 00:55:21;;;;;;;15.65;5.75;;;;;;;11.61;61.08;100577.41;4859973;29;20109;-95
2021/11/25 00:57:46;;;;;;;13.23;5.35;;;;;;;11.66;60.65;100585.84;4859932;29;20420;-96
2021/11/25 01:00:16;;;;;;;11.25;5.82;;;;;;;11.58;60.77;100577.63;4863555;29;20032;-96
2021/11/25 01:02:42;;;;;;;13.00;4.82;;;;;;;11.65;60.30;100573.63;4862509;29;20444;-95
2021/11/25 01:05:08;;;;;;;10.68;4.30;;;;;;;11.58;59.81;100575.84;4863652;29;20071;-96
2021/11/25 01:07:34;;;;;;;13.18;4.47;;;;;;;11.66;59.79;100577.94;4863571;29;20034;-95
2021/11/25 01:09:59;;;;;;;10.73;4.55;;;;;;;11.76;59.42;100576.34;4863899;29;20036;-96
2021/11/25 01:12:28;;;;;;;9.07;4.30;;;;;;;11.63;59.82;100580.78;4863591;29;20041;-96
2021/11/25 01:14:53;;;;;;;9.10;3.95;;;;;;;11.63;59.60;100578.16;4863392;29;20396;-95
2021/11/25 01:17:18;;;;;;;11.73;3.80;;;;;;;11.63;58.96;100573.75;4863397;29;20030;-95
2021/11/25 01:19:44;;;;;;;10.00;3.53;;;;;;;11.66;58.83;100585.84;4863251;29;20037;-95
2021/11/25 01:22:09;;;;;;;13.75;3.70;;;;;;;11.74;58.58;100587.94;4858050;29;20037;-96
2021/11/25 01:24:34;;;;;;;11.43;3.70;;;;;;;11.64;58.32;100579.84;4844564;29;20033;-95
2021/11/25 01:27:00;;;;;;;6.50;3.28;;;;;;;11.58;58.38;100582.91;4844663;29;20120;-95
2021/11/25 01:29:25;;;;;;;9.85;3.05;;;;;;;11.51;58.80;100587.72;4844585;29;20374;-96
2021/11/25 01:31:51;;;;;;;13.63;3.72;;;;;;;11.32;58.98;100577.66;4844659;29;20393;-96
2021/11/25 01:34:16;;;;;;;12.88;3.50;;;;;;;11.38;59.27;100582.47;4843531;29;20030;-94
2021/11/25 01:36:42;;;;;;;10.85;3.35;;;;;;;11.48;58.86;100588.78;4847785;29;20496;-96
2021/11/25 01:39:08;;;;;;;10.02;4.57;;;;;;;11.51;58.95;100579.84;4863228;29;20146;-95
2021/11/25 01:41:33;;;;;;;11.88;3.55;;;;;;;11.08;59.32;100580.16;4863257;29;20081;-95
2021/11/25 01:43:59;;;;;;;8.52;2.70;;;;;;;11.46;58.36;100581.97;4862939;29;20061;-96
2021/11/25 01:46:24;;;;;;;9.52;2.78;;;;;;;11.32;58.91;100586.38;4863441;29;20029;-95
2021/11/25 01:48:52;;;;;;;6.47;2.78;;;;;;;11.37;58.63;100591.28;4862982;29;20038;-94
2021/11/25 01:51:20;;;;;;;9.38;2.60;;;;;;;11.35;58.08;100593.19;4862174;29;20034;-95
2021/11/25 01:53:46;;;;;;;10.20;2.92;;;;;;;11.47;57.98;100597.63;4862690;29;20451;-96
2021/11/25 01:56:12;;;;;;;9.30;2.40;;;;;;;11.31;58.14;100599.59;4862900;29;20055;-96
2021/11/25 01:58:37;;;;;;;10.57;2.45;;;;;;;11.31;58.03;100592.59;4863282;29;20119;-95
2021/11/25 02:01:06;;;;;;;7.57;2.15;;;;;;;11.44;57.79;100600.47;4862333;29;20030;-95
2021/11/25 02:03:32;;;;;;;7.25;2.25;;;;;;;11.39;57.75;100601.72;4862843;29;20048;-96
2021/11/25 02:05:58;;;;;;;7.00;2.08;;;;;;;11.43;57.64;100609.31;4860725;29;20078;-95
2021/11/25 02:08:24;;;;;;;10.07;2.03;;;;;;;11.32;58.10;100593.41;4844039;29;20053;-95
2021/11/25 02:10:52;;;;;;;4.22;1.75;;;;;;;11.33;58.11;100613.50;4843777;29;20034;-95
2021/11/25 02:13:19;;;;;;;8.70;2.13;;;;;;;11.34;57.79;100616.97;4843911;29;20022;-95
2021/11/25 02:15:45;;;;;;;10.23;1.70;;;;;;;11.40;57.81;100611.31;4842740;29;20113;-95
2021/11/25 02:18:14;;;;;;;6.78;1.83;;;;;;;11.48;57.42;100625.59;4843655;29;20140;-95
2021/11/25 02:20:45;;;;;;;10.35;2.20;;;;;;;11.51;57.56;100630.66;4845226;29;20034;-96
2021/11/25 02:23:12;;;;;;;7.00;2.05;;;;;;;11.46;57.79;100627.50;4855929;29;20037;-96
2021/11/25 02:25:38;;;;;;;4.50;1.75;;;;;;;11.56;57.60;100617.19;4843648;29;20082;-95
2021/11/25 02:28:04;;;;;;;10.48;2.28;;;;;;;11.51;57.52;100620.16;4843669;29;20038;-95
2021/11/25 02:30:31;;;;;;;8.25;2.28;;;;;;;11.52;57.46;100631.50;4843437;29;20133;-96
2021/11/25 02:32:57;;;;;;;7.78;2.13;;;;;;;11.53;57.59;100633.16;4843708;29;20034;-95
2021/11/25 02:35:28;;;;;;;8.98;1.63;;;;;;;11.61;57.51;100624.75;4843550;29;20034;-95
2021/11/25 02:37:54;;;;;;;7.32;2.67;;;;;;;11.48;57.32;100624.75;4843292;29;20030;-96
2021/11/25 02:40:30;;;;;;;7.63;2.05;;;;;;;11.50;57.36;100621.06;4843453;29;20034;-95
2021/11/25 02:43:02;;;;;;;6.90;1.90;;;;;;;11.55;57.43;100622.53;4843178;29;20022;-95
2021/11/25 02:45:29;;;;;;;6.85;1.73;;;;;;;11.59;56.94;100621.38;4843560;29;20086;-95
2021/11/25 02:47:54;;;;;;;6.60;1.88;;;;;;;11.45;57.24;100623.19;4842145;29;20052;-94
2021/11/25 02:50:23;;;;;;;7.15;1.67;;;;;;;11.54;57.11;100618.25;4843280;29;20030;-95
2021/11/25 02:52:48;;;;;;;6.72;1.70;;;;;;;11.62;56.75;100619.38;4843078;29;20110;-95
2021/11/25 02:55:16;;;;;;;4.22;1.33;;;;;;;11.61;56.99;100622.13;4843225;29;20455;-94
2021/11/25 02:57:41;;;;;;;7.85;1.80;;;;;;;11.49;57.20;100622.03;4843101;29;20038;-96
2021/11/25 03:00:30;;;;;;;6.32;1.75;;;;;;;11.54;57.11;100623.50;4843707;29;20396;-95
2021/11/25 03:03:01;;;;;;;8.48;1.50;;;;;;;11.42;56.80;100630.44;4843596;29;20094;-94
2021/11/25 03:05:27;;;;;;;4.77;1.90;;;;;;;11.64;56.50;100622.75;4848970;29;20018;-93
2021/11/25 03:07:53;;;;;;;6.50;1.65;;;;;;;11.60;56.69;100628.34;4859951;29;20273;-93
2021/11/25 03:10:18;;;;;;;5.95;1.40;;;;;;;11.61;56.42;100627.38;4844735;29;20030;-93
2021/11/25 03:12:43;;;;;;;9.57;1.60;;;;;;;11.67;56.02;100632.22;4845109;29;20038;-93
2021/11/25 03:15:09;;;;;;;9.65;1.70;;;;;;;11.62;56.14;100626.44;4845203;29;20037;-94
2021/11/25 03:17:38;;;;;;;19.63;2.58;;;;;;;11.56;56.21;100627.72;4844752;29;20038;-94
2021/11/25 03:20:04;;;;;;;7.10;1.50;;;;;;;11.69;56.26;100625.91;4844933;29;20026;-93
2021/11/25 03:22:29;;;;;;;8.57;1.65;;;;;;;11.71;55.69;100626.66;4859777;29;20112;-95
2021/11/25 03:24:56;;;;;;;16.08;1.73;;;;;;;11.53;55.81;100622.66;4860883;29;20037;-95
2021/11/25 03:27:21;;;;;;;9.77;1.58;;;;;;;11.32;56.31;100625.81;4861586;29;20021;-94
2021/11/25 03:29:47;;;;;;;13.93;2.20;;;;;;;11.51;55.81;100625.41;4861300;29;20025;-95
2021/11/25 03:32:12;;;;;;;5.95;1.20;;;;;;;11.58;55.74;100619.72;4861152;29;20034;-95
2021/11/25 03:34:39;;;;;;;15.63;1.80;;;;;;;11.44;55.99;100623.28;4860980;29;20053;-95
2021/11/25 03:37:04;;;;;;;4.38;1.38;;;;;;;11.48;55.92;100628.22;4844442;29;20098;-96
2021/11/25 03:39:29;;;;;;;4.22;1.17;;;;;;;11.48;55.88;100619.50;4842720;29;20045;-94
2021/11/25 03:41:55;;;;;;;6.25;0.93;;;;;;;11.64;55.72;100614.88;4842756;29;20059;-96
2021/11/25 03:44:20;;;;;;;7.45;1.40;;;;;;;11.67;55.25;100613.81;4842478;29;20037;-95
2021/11/25 03:46:45;;;;;;;8.70;1.55;;;;;;;11.64;55.43;100625.38;4843482;29;20050;-94
2021/11/25 03:49:11;;;;;;;7.32;1.45;;;;;;;11.60;55.46;100625.72;4841964;29;20033;-92
2021/11/25 03:51:36;;;;;;;6.47;1.50;;;;;;;11.37;55.96;100622.84;4857771;29;20053;-94
2021/11/25 03:54:02;;;;;;;8.23;1.88;;;;;;;11.37;55.65;100632.53;4860502;29;20109;-96
2021/11/25 03:56:27;;;;;;;11.00;1.50;;;;;;;11.51;55.37;100619.28;4860753;29;20468;-95
2021/11/25 03:58:53;;;;;;;8.27;1.67;;;;;;;11.57;55.29;100623.28;4860798;29;20086;-96
2021/11/25 04:01:19;;;;;;;9.82;2.55;;;;;;;11.66;55.08;100635.81;4859396;29;20112;-96
2021/11/25 04:03:45;;;;;;;5.68;1.27;;;;;;;11.51;55.60;100638.56;4860678;29;20037;-95
2021/11/25 04:06:10;;;;;;;10.00;1.70;;;;;;;11.49;55.59;100632.56;4846818;29;20030;-96
2021/11/25 04:08:36;;;;;;;9.48;1.38;;;;;;;11.39;55.53;100631.47;4841907;29;20109;-96
2021/11/25 04:11:02;;;;;;;11.43;1.55;;;;;;;11.47;55.40;100626.56;4842025;29;20045;-95
2021/11/25 04:13:28;;;;;;;4.82;1.30;;;;;;;11.43;55.38;100637.38;4842151;29;20026;-95
2021/11/25 04:15:53;;;;;;;4.53;1.35;;;;;;;11.38;55.34;100640.31;4840118;29;20042;-95
2021/11/25 04:18:19;;;;;;;26.90;2.70;;;;;;;11.40;55.35;100634.97;4841808;29;20077;-96
2021/11/25 04:20:44;;;;;;;4.75;1.13;;;;;;;11.28;55.63;100628.75;4853557;29;20041;-94
2021/11/25 04:23:10;;;;;;;5.18;1.00;;;;;;;11.25;55.38;100636.81;4859085;29;20469;-95
2021/11/25 04:25:35;;;;;;;7.20;1.35;;;;;;;11.32;55.43;100646.81;4859286;29;20030;-95
2021/11/25 04:28:02;;;;;;;4.72;1.35;;;;;;;11.24;55.35;100649.13;4860306;29;20119;-95
2021/11/25 04:35:46;;;;;;;7.88;1.40;;;;;;;11.04;56.04;100647.84;4849396;29;20355;-95
2021/11/25 04:38:16;;;;;;;8.90;1.50;;;;;;;10.92;56.33;100653.91;4845721;29;20393;-95
2021/11/25 04:40:54;;;;;;;11.18;1.40;;;;;;;11.03;56.15;100661.91;4852776;29;20030;-96
2021/11/25 04:43:20;;;;;;;9.23;1.92;;;;;;;10.92;56.08;100653.91;4863770;29;20030;-96
2021/11/25 04:45:48;;;;;;;16.38;2.42;;;;;;;10.98;55.87;100658.75;4858750;29;20050;-96
2021/11/25 04:48:15;;;;;;;12.65;2.08;;;;;;;10.80;56.15;100650.28;4845699;29;20103;-95
2021/11/25 04:50:41;;;;;;;8.65;1.38;;;;;;;10.82;56.34;100663.31;4845213;29;20029;-95
2021/11/25 04:53:09;;;;;;;9.65;1.70;;;;;;;10.73;56.78;100663.91;4845024;29;20030;-94
2021/11/25 04:55:34;;;;;;;7.70;1.33;;;;;;;10.72;56.30;100655.16;4845094;29;20033;-96
2021/11/25 04:58:00;;;;;;;5.40;1.20;;;;;;;10.57;56.39;100654.38;4844915;29;20041;-95
2021/11/25 05:00:26;;;;;;;8.27;1.95;;;;;;;10.53;56.94;100658.16;4844643;29;20026;-95
2021/11/25 05:02:51;;;;;;;7.65;1.45;;;;;;;10.51;56.32;100658.25;4848958;29;20049;-94
2021/11/25 05:05:17;;;;;;;11.20;2.03;;;;;;;10.15;57.48;100653.50;4845261;29;20465;-95
2021/11/25 05:07:42;;;;;;;10.02;1.80;;;;;;;10.46;56.85;100656.84;4851294;29;20022;-95
2021/11/25 05:10:09;;;;;;;7.25;1.27;;;;;;;10.37;56.71;100657.41;4860647;29;20029;-95
2021/11/25 05:12:37;;;;;;;6.03;1.30;;;;;;;10.35;56.79;100656.66;4855442;29;20079;-95
2021/11/25 05:15:07;;;;;;;8.02;1.80;;;;;;;10.27;56.75;100667.66;4862628;29;20507;-95
2021/11/25 05:17:33;;;;;;;9.02;1.70;;;;;;;10.29;57.03;100666.59;4862783;29;20037;-95
2021/11/25 05:19:58;;;;;;;13.02;1.60;;;;;;;10.30;57.30;100672.72;4861980;29;20133;-95
2021/11/25 05:22:24;;;;;;;9.52;1.70;;;;;;;10.32;57.05;100665.59;4863010;29;20037;-95
2021/11/25 05:24:49;;;;;;;11.85;1.55;;;;;;;10.25;57.00;100674.78;4862890;29;20030;-95
2021/11/25 05:27:15;;;;;;;17.65;2.22;;;;;;;10.28;56.84;100670.16;4856755;29;20065;-95
2021/11/25 05:29:40;;;;;;;12.25;2.33;;;;;;;10.12;57.05;100664.19;4844041;29;20041;-94
2021/11/25 05:32:06;;;;;;;8.30;1.50;;;;;;;10.16;57.24;100663.06;4843195;29;20038;-95
2021/11/25 05:34:32;;;;;;;13.65;1.77;;;;;;;10.08;56.95;100652.19;4844422;29;20499;-95
2021/11/25 05:36:58;;;;;;;7.50;1.30;;;;;;;10.11;56.76;100647.59;4844537;29;20114;-94
2021/11/25 05:39:23;;;;;;;6.88;1.50;;;;;;;9.95;57.40;100641.59;4844218;29;20037;-94
2021/11/25 05:41:49;;;;;;;9.45;1.25;;;;;;;9.89;56.71;100655.97;4848506;29;20033;-95
2021/11/25 05:44:15;;;;;;;16.27;1.55;;;;;;;9.90;57.31;100662.03;4862323;29;20070;-95
2021/11/25 05:46:40;;;;;;;5.90;1.08;;;;;;;9.90;57.52;100660.25;4861808;29;20025;-95
2021/11/25 05:49:06;;;;;;;10.50;1.25;;;;;;;9.89;56.97;100660.34;4861085;29;20040;-95
2021/11/25 05:51:31;;;;;;;8.10;1.98;;;;;;;9.71;57.55;100672.78;4862674;29;20168;-95
2021/11/25 05:53:58;;;;;;;9.43;1.40;;;;;;;9.70;57.29;100661.47;4862520;29;20029;-95
2021/11/25 05:56:23;;;;;;;4.50;1.10;;;;;;;9.75;57.84;100666.41;4858717;29;20068;-95
2021/11/25 05:58:49;;;;;;;6.88;1.10;;;;;;;9.77;57.87;100664.53;4843787;29;20033;-95
2021/11/25 06:01:14;;;;;;;13.18;1.95;;;;;;;9.72;57.82;100664.84;4843971;29;20508;-96
2021/11/25 06:03:39;;;;;;;8.57;1.25;;;;;;;9.72;57.55;100677.13;4843328;29;20485;-96
2021/11/25 06:06:05;;;;;;;11.70;1.50;;;;;;;9.72;57.42;100671.88;4843992;29;20049;-95
2021/11/25 06:08:30;;;;;;;9.98;1.40;;;;;;;9.55;58.29;100677.28;4844853;29;20082;-95
2021/11/25 06:10:56;;;;;;;6.20;1.10;;;;;;;9.61;58.37;100682.16;4847624;29;20171;-95
2021/11/25 06:13:21;;;;;;;6.85;1.13;;;;;;;9.58;57.84;100690.19;4862320;29;20040;-94
2021/11/25 06:15:47;;;;;;;9.55;1.45;;;;;;;9.56;58.60;100697.28;4864111;29;20025;-94
2021/11/25 06:18:14;;;;;;;11.73;2.05;;;;;;;9.63;57.83;100698.63;4864453;29;20507;-95
2021/11/25 06:20:39;;;;;;;8.07;2.10;;;;;;;9.63;58.24;100701.25;4865388;29;20029;-95
2021/11/25 06:23:05;;;;;;;7.10;1.58;;;;;;;9.45;58.71;100701.38;4866152;29;20032;-96
2021/11/25 06:25:32;;;;;;;10.95;1.20;;;;;;;9.49;58.83;100691.56;4862266;29;20026;-95
2021/11/25 06:27:57;;;;;;;7.28;1.83;;;;;;;9.47;58.36;100696.06;4844616;29;20037;-95
2021/11/25 06:30:23;;;;;;;9.10;1.58;;;;;;;9.45;58.81;100709.25;4845628;29;20549;-95
2021/11/25 06:32:50;;;;;;;13.00;1.58;;;;;;;9.43;58.82;100708.50;4863285;29;20025;-95
2021/11/25 06:35:16;;;;;;;8.30;1.80;;;;;;;9.34;59.10;100709.06;4863898;29;20021;-94
2021/11/25 06:37:45;;;;;;;10.95;1.50;;;;;;;9.31;58.81;100717.09;4862966;29;20037;-94
2021/11/25 06:40:12;;;;;;;7.85;1.30;;;;;;;9.36;58.96;100722.03;4861874;29;20034;-95
2021/11/25 06:42:38;;;;;;;6.60;1.50;;;;;;;9.40;58.56;100720.94;4844604;29;20030;-94
2021/11/25 06:45:05;;;;;;;10.82;1.58;;;;;;;9.27;59.27;100718.19;4857227;29;20041;-95
2021/11/25 06:47:30;;;;;;;10.45;1.00;;;;;;;9.36;58.92;100716.81;4860709;29;20030;-95
2021/11/25 06:49:56;;;;;;;13.27;2.20;;;;;;;9.16;59.22;100723.19;4847577;29;20545;-95
2021/11/25 06:52:22;;;;;;;5.63;1.23;;;;;;;9.25;59.42;100725.28;4843769;29;20030;-95
2021/11/25 06:54:47;;;;;;;7.50;1.30;;;;;;;9.30;59.40;100720.63;4843185;29;20030;-95
2021/11/25 06:57:13;;;;;;;6.35;1.17;;;;;;;9.30;59.39;100728.47;4842947;29;20037;-95
2021/11/25 06:59:39;;;;;;;9.70;1.73;;;;;;;9.23;59.00;100728.00;4843475;29;20058;-95
2021/11/25 07:02:05;;;;;;;10.32;1.10;;;;;;;9.16;59.70;100729.28;4842436;29;20120;-95
2021/11/25 07:04:30;;;;;;;10.40;1.33;;;;;;;8.97;59.65;100726.88;4843596;29;20112;-95
2021/11/25 07:06:55;;;;;;;8.05;2.17;;;;;;;9.09;59.43;100728.78;4843806;29;20038;-94
2021/11/25 07:09:21;;;;;;;5.93;1.27;;;;;;;9.11;59.11;100740.03;4854802;29;20430;-93
2021/11/25 07:11:46;;;;;;;10.63;1.65;;;;;;;9.20;58.63;100730.81;4845691;29;20042;-94
2021/11/25 07:14:12;;;;;;;2.90;1.02;;;;;;;9.24;58.74;100734.06;4843107;29;20073;-93
2021/11/25 07:16:37;;;;;;;6.97;1.20;;;;;;;9.10;59.02;100742.72;4842570;29;20026;-94
2021/11/25 07:19:03;;;;;;;14.18;1.85;;;;;;;9.25;58.87;100733.16;4843089;29;20085;-94
2021/11/25 07:21:29;;;;;;;9.38;1.33;;;;;;;9.05;59.52;100743.00;4857482;29;20085;-95
2021/11/25 07:23:55;;;;;;;11.32;2.03;;;;;;;9.10;59.41;100755.81;4858002;29;20037;-95
2021/11/25 07:26:21;;;;;;;9.07;1.90;;;;;;;9.03;59.59;100750.09;4861157;29;20040;-94
2021/11/25 07:28:46;;;;;;;6.25;1.23;;;;;;;9.05;59.01;100750.00;4861861;29;20030;-94
2021/11/25 07:31:12;;;;;;;18.70;2.13;;;;;;;8.75;59.84;100748.16;4864372;29;20032;-95
2021/11/25 07:33:37;;;;;;;11.98;1.73;;;;;;;8.84;59.88;100752.03;4862291;29;20089;-95
2021/11/25 07:36:03;;;;;;;6.38;1.58;;;;;;;9.01;59.20;100765.03;4861099;29;20026;-94
2021/11/25 07:38:30;;;;;;;8.98;1.85;;;;;;;8.64;60.75;100767.06;4861744;29;20037;-95
2021/11/25 07:40:57;;;;;;;8.90;1.20;;;;;;;8.96;59.58;100763.59;4861241;29;20032;-95
2021/11/25 07:43:23;;;;;;;7.88;1.10;;;;;;;8.72;59.73;100774.50;4862180;29;20044;-95
2021/11/25 07:45:48;;;;;;;9.57;2.15;;;;;;;8.82;60.69;100777.47;4849587;29;20494;-94
2021/11/25 07:48:14;;;;;;;5.10;1.10;;;;;;;8.71;60.11;100788.53;4853097;29;20077;-95
2021/11/25 07:50:39;;;;;;;9.70;1.30;;;;;;;8.90;59.61;100788.34;4860515;29;20044;-95
2021/11/25 07:53:06;;;;;;;5.95;1.27;;;;;;;9.03;59.02;100789.38;4861039;29;20038;-95
2021/11/25 07:55:32;;;;;;;9.77;1.83;;;;;;;9.04;59.21;100790.22;4860860;29;20030;-95
2021/11/25 07:57:58;;;;;;;7.45;1.30;;;;;;;9.12;58.53;100788.88;4858971;29;20105;-95
2021/11/25 08:00:26;;;;;;;9.32;1.30;;;;;;;9.16;58.53;100796.53;4856930;29;20029;-95
2021/11/25 08:02:52;;;;;;;12.05;1.52;;;;;;;9.12;58.08;100801.09;4851479;29;20030;-94
2021/11/25 08:05:18;;;;;;;13.23;2.13;;;;;;;8.99;59.07;100806.19;4848513;29;20042;-94
2021/11/25 08:07:44;;;;;;;10.02;2.13;;;;;;;9.00;58.48;100814.88;4842499;29;20079;-95
2021/11/25 08:10:12;;;;;;;7.10;1.35;;;;;;;8.90;58.61;100819.78;4840742;29;20422;-92
2021/11/25 08:12:39;;;;;;;8.00;1.38;;;;;;;9.01;58.19;100817.44;4846057;29;20026;-94
2021/11/25 08:15:05;;;;;;;5.13;1.35;;;;;;;9.19;57.81;100819.97;4858975;29;20120;-94
2021/11/25 08:17:31;;;;;;;13.52;1.45;;;;;;;9.17;58.19;100825.28;4852310;29;20088;-95
2021/11/25 08:19:56;;;;;;;10.52;1.65;;;;;;;9.29;57.40;100831.63;4846941;29;20493;-96
2021/11/25 08:22:22;;;;;;;7.32;1.60;;;;;;;9.21;57.82;100828.59;4853671;29;20078;-95
2021/11/25 08:24:47;;;;;;;4.50;1.25;;;;;;;9.36;57.76;100838.22;4846106;29;20516;-95
2021/11/25 08:27:14;;;;;;;5.78;1.23;;;;;;;9.33;57.45;100841.00;4845809;29;20048;-95
2021/11/25 08:29:43;;;;;;;9.90;1.10;;;;;;;9.36;57.19;100840.84;4854866;29;20081;-95
2021/11/25 08:32:09;;;;;;;6.65;1.10;;;;;;;9.43;57.21;100842.16;4851669;29;20112;-96
2021/11/25 08:34:36;;;;;;;8.43;1.40;;;;;;;9.43;56.78;100847.41;4859147;29;20034;-94
2021/11/25 08:37:01;;;;;;;2.90;0.73;;;;;;;9.42;56.80;100848.34;4855792;29;20034;-94
2021/11/25 08:39:27;;;;;;;7.95;1.58;;;;;;;9.38;56.90;100852.09;4843869;29;20045;-96
2021/11/25 08:41:52;;;;;;;14.73;1.10;;;;;;;9.21;57.14;100865.28;4847135;29;20030;-96
2021/11/25 08:44:18;;;;;;;7.20;1.13;;;;;;;9.41;56.92;100862.38;4849486;29;20038;-94
2021/11/25 08:46:44;;;;;;;9.75;1.08;;;;;;;9.31;57.33;100863.81;4849049;29;20064;-93
2021/11/25 08:49:10;;;;;;;5.38;1.00;;;;;;;9.35;57.00;100862.72;4850820;29;20025;-93
2021/11/25 08:51:35;;;;;;;9.23;1.27;;;;;;;9.52;56.84;100864.41;4853170;29;20481;-92
2021/11/25 08:54:01;;;;;;;9.20;1.50;;;;;;;9.63;56.33;100867.25;4844696;29;20082;-94
2021/11/25 08:56:30;;;;;;;8.23;1.10;;;;;;;9.70;56.59;100860.75;4840986;29;20029;-93
2021/11/25 08:58:57;;;;;;;7.85;1.25;;;;;;;9.66;56.25;100861.84;4840957;29;20041;-92
2021/11/25 09:01:23;;;;;;;7.57;1.75;;;;;;;9.70;56.10;100865.16;4844570;29;20038;-94
2021/11/25 09:03:49;;;;;;;8.50;1.83;;;;;;;9.58;56.43;100861.44;4853174;29;20430;-94
2021/11/25 09:06:14;;;;;;;9.43;2.80;;;;;;;9.45;56.49;100863.91;4856373;29;20093;-94
2021/11/25 09:08:41;;;;;;;9.63;2.00;;;;;;;9.59;56.26;100865.75;4844530;29;20070;-96
2021/11/25 09:11:07;;;;;;;6.20;1.42;;;;;;;9.56;56.36;100854.56;4850839;29;20108;-95
2021/11/25 09:13:32;;;;;;;7.25;1.33;;;;;;;9.56;56.45;100849.34;4848147;29;20121;-93
2021/11/25 09:15:58;;;;;;;6.75;1.48;;;;;;;9.62;56.41;100859.50;4841480;29;20072;-93
2021/11/25 09:18:24;;;;;;;6.60;1.60;;;;;;;9.69;56.34;100855.59;4844028;29;20040;-92
2021/11/25 09:20:49;;;;;;;6.18;1.90;;;;;;;9.81;55.78;100854.03;4854252;29;20062;-91
2021/11/25 09:23:17;;;;;;;4.93;1.45;;;;;;;9.81;55.50;100860.13;4849181;29;20041;-91
2021/11/25 09:25:44;;;;;;;8.70;1.80;;;;;;;9.96;55.67;100860.19;4849620;29;20030;-94
2021/11/25 09:28:13;;;;;;;9.13;1.23;;;;;;;10.01;55.37;100863.38;4856737;29;20085;-95
2021/11/25 09:30:40;;;;;;;9.05;1.80;;;;;;;10.13;55.22;100860.06;4858444;29;20070;-94
2021/11/25 09:33:06;;;;;;;10.45;1.23;;;;;;;10.18;54.75;100857.97;4854064;29;20033;-95
2021/11/25 09:35:32;;;;;;;8.75;1.23;;;;;;;10.24;54.73;100852.38;4862619;29;20029;-95
2021/11/25 09:37:58;;;;;;;5.63;1.38;;;;;;;10.35;54.59;100848.28;4855894;29;20044;-95
2021/11/25 09:40:26;;;;;;;4.63;0.98;;;;;;;10.28;54.12;100850.41;4862930;29;20029;-94
2021/11/25 09:43:00;;;;;;;9.20;1.08;;;;;;;10.56;53.71;100848.78;4861858;29;20033;-95
2021/11/25 09:45:27;;;;;;;9.95;2.10;;;;;;;10.63;53.13;100852.72;4863023;29;20029;-94
2021/11/25 09:47:58;;;;;;;7.25;1.55;;;;;;;10.51;53.37;100860.41;4853267;29;20053;-95
2021/11/25 09:50:27;;;;;;;10.52;1.95;;;;;;;10.47;53.51;100858.91;4845464;29;20022;-96
2021/11/25 09:52:55;;;;;;;6.63;1.25;;;;;;;10.53;53.93;100862.94;4845632;29;20045;-95
2021/11/25 09:55:22;;;;;;;4.90;1.10;;;;;;;10.41;53.70;100864.53;4845192;29;20037;-96
2021/11/25 09:57:50;;;;;;;5.85;1.55;;;;;;;10.75;53.10;100861.63;4844436;29;20045;-96
2021/11/25 10:00:17;;;;;;;7.40;1.45;;;;;;;11.15;52.54;100875.75;4844009;29;20393;-96
2021/11/25 10:02:42;;;;;;;4.80;1.27;;;;;;;12.17;51.17;100877.13;4853698;29;20029;-96
2021/11/25 10:05:07;;;;;;;6.57;1.45;;;;;;;13.20;48.31;100881.38;4862448;29;20048;-96
2021/11/25 10:07:37;;;;;;;5.30;1.33;;;;;;;14.27;46.65;100885.00;4849038;29;20079;-95
2021/11/25 10:10:30;;;;;;;8.45;1.10;;;;;;;15.22;43.37;100885.56;4843600;29;20116;-95
2021/11/25 10:13:23;;;;;;;11.10;1.65;;;;;;;16.01;41.34;100885.34;4840976;29;20045;-95
2021/11/25 10:15:50;;;;;;;7.60;1.50;;;;;;;16.94;41.01;100890.81;4843711;29;20109;-95
2021/11/25 10:18:18;;;;;;;5.22;1.67;;;;;;;17.75;40.42;100896.88;4843561;29;20042;-96
2021/11/25 10:20:50;;;;;;;5.68;1.25;;;;;;;18.14;38.11;100907.50;4847792;29;20052;-95
2021/11/25 10:23:22;;;;;;;4.40;1.23;;;;;;;18.03;37.77;100905.84;4861881;29;20206;-96
2021/11/25 10:26:06;;;;;;;7.57;1.65;;;;;;;19.16;36.85;100906.00;4861476;29;20481;-95
2021/11/25 10:28:37;;;;;;;7.25;1.60;;;;;;;19.62;35.98;100904.16;4861441;29;20034;-96
2021/11/25 10:31:16;;;;;;;7.60;2.13;;;;;;;19.95;34.81;100905.34;4860141;29;20507;-96
2021/11/25 10:33:59;;;;;;;6.68;1.30;;;;;;;20.50;33.88;100898.94;4847052;29;20070;-96
2021/11/25 10:39:04;;;;;;;6.60;1.50;;;;;;;20.89;32.74;100903.84;4842903;29;20472;-96
2021/11/25 10:41:31;;;;;;;8.32;1.38;;;;;;;21.18;32.47;100906.13;4860314;29;20536;-92
2021/11/25 10:44:18;;;;;;;7.53;1.67;;;;;;;21.38;32.10;100906.69;4843818;29;20034;-93
2021/11/25 10:46:51;;;;;;;7.05;1.40;;;;;;;20.75;32.42;100913.28;4857358;29;20468;-92
2021/11/25 10:49:19;;;;;;;5.95;1.50;;;;;;;21.08;32.28;100900.09;4859428;29;20108;-92
2021/11/25 10:51:46;;;;;;;7.88;1.63;;;;;;;20.31;32.75;100899.97;4860240;29;20061;-92
2021/11/25 10:54:15;;;;;;;6.22;1.58;;;;;;;21.03;32.80;100905.09;4858693;29;20029;-93
2021/11/25 10:56:51;;;;;;;4.22;1.20;;;;;;;20.52;32.69;100894.28;4843894;29;20030;-96
2021/11/25 10:59:19;;;;;;;8.23;1.53;;;;;;;21.09;31.99;100896.44;4821464;29;1087857;-96
2021/11/25 11:01:47;;;;;;;7.45;1.38;;;;;;;20.76;31.99;100900.78;4843195;29;20069;-95
2021/11/25 11:04:14;;;;;;;2.85;1.00;;;;;;;20.45;32.34;100900.38;4841518;29;20022;-95
2021/11/25 11:06:42;;;;;;;9.85;1.50;;;;;;;20.28;33.04;100894.94;4843594;29;20036;-96
2021/11/25 11:09:27;;;;;;;6.97;1.80;;;;;;;20.25;33.22;100895.25;4843593;29;20094;-96
2021/11/25 11:12:29;;;;;;;8.73;1.52;;;;;;;20.45;32.92;100884.38;4843440;29;20025;-96
2021/11/25 11:14:57;;;;;;;8.60;1.48;;;;;;;19.96;32.82;100876.84;4833109;29;20034;-95
2021/11/25 11:17:31;;;;;;;9.90;1.60;;;;;;;19.32;33.88;100876.06;4843604;29;20045;-96
2021/11/25 11:20:05;;;;;;;3.45;1.15;;;;;;;19.61;33.25;100875.88;4843608;29;20137;-96
2021/11/25 11:22:30;;;;;;;4.38;1.30;;;;;;;19.84;33.13;100886.09;4843386;29;20030;-96
2021/11/25 11:24:56;;;;;;;7.80;1.55;;;;;;;19.95;33.15;100878.69;4843400;29;20026;-95
2021/11/25 11:27:22;;;;;;;3.92;1.15;;;;;;;20.33;32.76;100887.31;4843841;29;20052;-96
2021/11/25 11:29:47;;;;;;;8.27;1.45;;;;;;;20.44;32.35;100875.56;4843003;29;20505;-96
2021/11/25 11:32:13;;;;;;;3.83;1.40;;;;;;;20.57;32.30;100869.78;4843965;29;20053;-96